Time;durP1;ratioP1;P1;durP2;ratioP2;P2;SDS_P1;SDS_P2;PMS_P1;PMS_P2;Temp;Humidity;BMP_temperature;BMP_pressure;BME280_temperature;BME280_humidity;BME280_pressure;Samples;Min_cycle;Max_cycle;Signal;HPM_P1;HPM_P2
2023/12/04 00:01:17;;;;;;;1.98;1.05;;;;;;;5.87;100.00;100965.41;5033134;28;20033;-65
2023/12/04 00:03:43;;;;;;;1.88;1.10;;;;;;;5.76;100.00;100943.34;5033038;28;20060;-64
2023/12/04 00:06:10;;;;;;;4.72;1.40;;;;;;;5.93;100.00;100963.22;5032960;28;20065;-67
2023/12/04 00:08:37;;;;;;;1.73;1.23;;;;;;;5.90;100.00;100964.69;5036743;28;20032;-66
2023/12/04 00:11:03;;;;;;;1.60;0.90;;;;;;;5.28;100.00;100882.25;5032471;28;20431;-66
2023/12/04 00:13:28;;;;;;;3.20;1.00;;;;;;;5.64;100.00;100964.78;5031048;28;20134;-63
2023/12/04 00:15:54;;;;;;;2.15;1.20;;;;;;;5.68;100.00;100968.44;5033039;28;20492;-66
2023/12/04 00:18:19;;;;;;;1.42;0.93;;;;;;;5.53;100.00;100975.13;5032449;28;20403;-65
2023/12/04 00:20:46;;;;;;;2.30;1.10;;;;;;;5.19;100.00;100935.41;5032499;28;20095;-65
2023/12/04 00:23:11;;;;;;;1.10;0.98;;;;;;;5.17;100.00;100936.94;5033276;28;20057;-67
2023/12/04 00:25:37;;;;;;;2.83;1.20;;;;;;;5.10;100.00;100970.63;5038561;28;20148;-63
2023/12/04 00:28:03;;;;;;;1.45;1.00;;;;;;;5.01;100.00;100969.22;5032588;28;20025;-64
2023/12/04 00:30:32;;;;;;;1.75;1.10;;;;;;;5.15;100.00;101003.41;5031953;28;20553;-64
2023/12/04 00:32:57;;;;;;;1.13;0.93;;;;;;;4.92;100.00;100988.16;5020225;28;20025;-65
2023/12/04 00:35:23;;;;;;;1.45;1.17;;;;;;;5.07;100.00;101017.38;5031996;28;20105;-66
2023/12/04 00:37:48;;;;;;;2.00;1.30;;;;;;;4.94;100.00;100986.63;5030071;28;20065;-63
2023/12/04 00:40:14;;;;;;;2.72;1.60;;;;;;;5.02;100.00;100982.88;5032439;28;20021;-65
2023/12/04 00:42:39;;;;;;;3.47;1.52;;;;;;;4.89;100.00;100968.38;5032699;28;20063;-65
2023/12/04 00:45:06;;;;;;;2.35;1.52;;;;;;;4.82;100.00;100997.78;5032367;28;20027;-66
2023/12/04 00:47:31;;;;;;;2.40;1.20;;;;;;;4.82;100.00;101023.38;5032655;28;20550;-69
2023/12/04 00:49:57;;;;;;;2.63;1.40;;;;;;;4.84;100.00;101041.38;5032482;28;20105;-66
2023/12/04 00:52:22;;;;;;;2.90;1.92;;;;;;;4.82;100.00;101040.38;5032542;28;20025;-63
2023/12/04 00:54:48;;;;;;;2.25;1.45;;;;;;;4.72;100.00;101045.63;5032202;28;20028;-66
2023/12/04 00:57:13;;;;;;;2.95;1.70;;;;;;;4.34;100.00;100988.47;5031797;28;20072;-70
2023/12/04 00:59:39;;;;;;;2.88;1.73;;;;;;;4.72;100.00;101048.19;5031644;28;20069;-68
2023/12/04 01:02:07;;;;;;;2.55;1.50;;;;;;;4.70;100.00;101033.63;5017379;28;20042;-70
2023/12/04 01:04:32;;;;;;;2.42;1.70;;;;;;;4.53;100.00;101035.00;5031792;28;20030;-67
2023/12/04 01:06:58;;;;;;;2.25;1.60;;;;;;;4.65;100.00;101050.31;5031700;28;20029;-66
2023/12/04 01:09:24;;;;;;;4.32;1.58;;;;;;;4.88;100.00;101084.28;5032108;28;20041;-67
2023/12/04 01:11:53;;;;;;;2.35;1.88;;;;;;;4.91;100.00;101081.06;5025539;28;20029;-67
2023/12/04 01:14:18;;;;;;;3.50;1.70;;;;;;;4.37;100.00;100991.25;5031503;28;20029;-66
2023/12/04 01:16:44;;;;;;;2.33;1.75;;;;;;;4.74;100.00;101056.88;5046502;28;20314;-68
2023/12/04 01:19:09;;;;;;;3.10;1.60;;;;;;;4.82;100.00;101065.94;5031334;28;20043;-67
2023/12/04 01:21:35;;;;;;;2.78;1.60;;;;;;;4.82;100.00;101065.94;5030978;28;20069;-67
2023/12/04 01:24:01;;;;;;;3.28;1.85;;;;;;;4.71;100.00;101055.00;5031727;28;20481;-66
2023/12/04 01:26:27;;;;;;;3.42;1.90;;;;;;;4.15;100.00;100986.28;5023028;28;20049;-69
2023/12/04 01:28:52;;;;;;;4.43;1.92;;;;;;;4.61;100.00;101071.34;5031666;28;20034;-69
2023/12/04 01:31:18;;;;;;;4.93;1.80;;;;;;;4.45;100.00;101042.91;5030395;28;20030;-67
2023/12/04 01:33:43;;;;;;;4.28;2.17;;;;;;;4.53;100.00;101049.47;5046453;28;20036;-66
2023/12/04 01:36:09;;;;;;;3.05;1.90;;;;;;;4.51;100.00;101051.00;5031348;28;20022;-69
2023/12/04 01:38:36;;;;;;;4.00;2.20;;;;;;;4.38;100.00;101054.38;5031133;28;20041;-65
2023/12/04 01:41:01;;;;;;;3.92;2.13;;;;;;;4.34;100.00;101070.28;5031088;28;20439;-70
2023/12/04 01:43:28;;;;;;;3.70;2.20;;;;;;;4.27;100.00;101091.06;5031018;28;20112;-70
2023/12/04 01:45:54;;;;;;;4.57;2.50;;;;;;;4.19;100.00;101091.38;5031277;28;20057;-66
2023/12/04 01:48:20;;;;;;;3.47;2.20;;;;;;;4.00;100.00;101101.03;5031016;28;20072;-64
2023/12/04 01:50:46;;;;;;;4.05;2.13;;;;;;;4.06;100.00;101106.59;5031189;28;20033;-65
2023/12/04 01:53:12;;;;;;;5.75;2.50;;;;;;;3.39;100.00;100983.41;5040673;28;20492;-70
2023/12/04 01:55:38;;;;;;;6.15;2.85;;;;;;;4.08;100.00;101094.84;5031141;28;20060;-67
2023/12/04 01:58:05;;;;;;;4.45;2.50;;;;;;;3.92;100.00;101068.94;5030557;28;20029;-66
2023/12/04 02:00:34;;;;;;;3.70;2.40;;;;;;;4.17;100.00;101107.41;5030946;28;20131;-65
2023/12/04 02:03:00;;;;;;;4.30;2.15;;;;;;;4.20;100.00;101079.53;5006023;28;20172;-68
2023/12/04 02:05:27;;;;;;;4.32;2.38;;;;;;;4.21;100.00;101094.06;5021822;28;20034;-66
2023/12/04 02:07:53;;;;;;;4.22;2.35;;;;;;;4.14;100.00;101094.41;5028032;28;20026;-68
2023/12/04 02:10:19;;;;;;;4.10;2.50;;;;;;;4.14;100.00;101113.16;5030247;28;20036;-67
2023/12/04 02:12:45;;;;;;;5.90;2.30;;;;;;;3.97;100.00;101093.16;5030396;28;20029;-69
2023/12/04 02:15:11;;;;;;;4.20;2.58;;;;;;;3.96;100.00;101105.06;5030273;28;20032;-67
2023/12/04 02:17:37;;;;;;;4.25;2.70;;;;;;;3.88;100.00;101104.47;5030409;28;20029;-66
2023/12/04 02:20:05;;;;;;;4.03;2.42;;;;;;;3.82;100.00;101111.69;5030209;28;20052;-67
2023/12/04 02:22:30;;;;;;;5.95;3.15;;;;;;;3.28;100.00;101013.22;5006606;28;20144;-68
2023/12/04 02:24:59;;;;;;;6.38;3.00;;;;;;;3.72;100.00;101105.00;5029997;28;20104;-67
2023/12/04 02:27:31;;;;;;;4.82;2.75;;;;;;;3.72;100.00;101110.09;5026443;28;20029;-65
2023/12/04 02:29:59;;;;;;;5.25;2.67;;;;;;;3.29;100.00;101053.28;5029993;28;20496;-70
2023/12/04 02:32:29;;;;;;;4.88;2.60;;;;;;;3.29;100.00;101055.84;5030178;28;20036;-67
2023/12/04 02:34:56;;;;;;;6.50;2.60;;;;;;;3.87;100.00;101140.13;5029759;28;20489;-69
2023/12/04 02:37:23;;;;;;;4.75;2.50;;;;;;;4.03;100.00;101147.28;5030431;28;20622;-67
2023/12/04 02:39:52;;;;;;;4.40;2.58;;;;;;;4.11;100.00;101156.41;5029988;28;20112;-64
2023/12/04 02:42:19;;;;;;;5.03;2.67;;;;;;;4.24;100.00;101158.19;5035100;28;20404;-66
2023/12/04 02:44:44;;;;;;;4.47;2.75;;;;;;;4.31;100.00;101162.97;5030453;28;20025;-70
2023/12/04 02:47:10;;;;;;;6.07;3.05;;;;;;;3.99;100.00;101071.19;5029749;28;20036;-64
2023/12/04 02:49:36;;;;;;;5.63;3.17;;;;;;;4.56;100.00;101138.28;5029904;28;20026;-66
2023/12/04 02:52:03;;;;;;;5.28;2.85;;;;;;;4.63;100.00;101136.28;5030032;28;20033;-67
2023/12/04 02:54:28;;;;;;;4.05;2.50;;;;;;;4.71;100.00;101136.84;5029972;28;20040;-66
2023/12/04 02:56:54;;;;;;;3.50;2.63;;;;;;;4.83;100.00;101147.03;5009232;28;20038;-68
2023/12/04 02:59:19;;;;;;;3.88;2.72;;;;;;;4.68;100.00;101121.25;5033461;28;20025;-65
2023/12/04 03:01:46;;;;;;;5.78;2.72;;;;;;;4.87;100.00;101146.47;5036544;28;20053;-67
2023/12/04 03:04:13;;;;;;;6.28;2.78;;;;;;;4.83;100.00;101136.81;5036281;28;20087;-66
2023/12/04 03:06:38;;;;;;;6.05;2.75;;;;;;;4.80;100.00;101132.38;5036456;28;20566;-68
2023/12/04 03:09:04;;;;;;;7.22;5.07;;;;;;;4.69;100.00;101144.38;5036673;28;20017;-65
2023/12/04 03:11:30;;;;;;;5.28;2.78;;;;;;;4.77;100.00;101147.50;5036363;28;20059;-66
2023/12/04 03:13:56;;;;;;;5.55;2.90;;;;;;;4.70;100.00;101146.16;5037058;28;20076;-66
2023/12/04 03:16:21;;;;;;;4.82;3.10;;;;;;;4.70;100.00;101153.84;5038590;28;20045;-65
2023/12/04 03:18:47;;;;;;;5.63;3.40;;;;;;;4.67;100.00;101138.28;5036723;28;20143;-68
2023/12/04 03:21:12;;;;;;;5.63;3.28;;;;;;;4.74;100.00;101144.72;5036682;28;20034;-65
2023/12/04 03:23:38;;;;;;;6.32;3.38;;;;;;;4.65;100.00;101123.63;5035898;28;20049;-63
2023/12/04 03:26:03;;;;;;;6.07;3.28;;;;;;;4.75;100.00;101133.72;5035888;28;20049;-70
2023/12/04 03:28:29;;;;;;;6.13;3.28;;;;;;;4.85;100.00;101158.28;5023407;28;20033;-64
2023/12/04 03:30:55;;;;;;;8.40;3.50;;;;;;;4.83;100.00;101164.94;5033633;28;20160;-64
2023/12/04 03:33:21;;;;;;;4.85;3.10;;;;;;;4.59;100.00;101141.97;5036039;28;20076;-66
